createdAt,value
2022-11-27T00:03:24.176Z,5.22
2022-11-27T00:08:55.434Z,5.21
2022-11-27T00:14:25.631Z,5.15
2022-11-27T00:19:52.077Z,5.14
2022-11-27T00:25:18.349Z,5.12
2022-11-27T00:30:44.204Z,5.11
2022-11-27T00:36:10.779Z,5.09
2022-11-27T00:41:36.201Z,5.06
2022-11-27T00:47:01.159Z,5.04
2022-11-27T00:52:29.928Z,5.03
2022-11-27T00:58:04.851Z,5.01
2022-11-27T01:03:29.410Z,4.97
2022-11-27T01:08:56.424Z,4.99
2022-11-27T01:14:27.840Z,4.98
2022-11-27T01:19:52.680Z,4.99
2022-11-27T01:25:21.917Z,5.00
2022-11-27T01:30:51.892Z,5.00
2022-11-27T01:36:27.841Z,4.98
2022-11-27T01:41:55.377Z,4.95
2022-11-27T01:47:44.437Z,4.93
2022-11-27T01:53:13.369Z,4.92
2022-11-27T01:58:42.567Z,4.87
2022-11-27T02:04:08.878Z,4.77
2022-11-27T02:09:34.682Z,4.76
2022-11-27T02:15:15.842Z,4.69
2022-11-27T02:20:56.972Z,4.63
2022-11-27T02:26:40.057Z,4.60
2022-11-27T02:32:13.430Z,4.60
2022-11-27T02:37:43.360Z,4.60
2022-11-27T02:43:14.638Z,4.56
2022-11-27T02:48:50.091Z,4.55
2022-11-27T02:54:31.632Z,4.49
2022-11-27T03:00:01.532Z,4.46
2022-11-27T03:05:38.354Z,4.44
2022-11-27T03:11:13.896Z,4.39
2022-11-27T03:16:43.066Z,4.35
2022-11-27T03:22:34.143Z,4.33
2022-11-27T03:28:06.473Z,4.29
2022-11-27T03:33:38.193Z,4.24
2022-11-27T03:39:15.728Z,4.24
2022-11-27T03:44:48.951Z,4.22
2022-11-27T03:50:29.641Z,4.21
2022-11-27T03:56:10.198Z,4.18
2022-11-27T04:01:40.999Z,4.10
2022-11-27T04:07:05.990Z,4.05
2022-11-27T04:12:36.373Z,4.03
2022-11-27T04:18:01.154Z,4.06
2022-11-27T04:23:25.510Z,4.03
2022-11-27T04:28:59.217Z,4.06
2022-11-27T04:34:37.781Z,4.07
2022-11-27T04:40:03.187Z,4.06
2022-11-27T04:45:27.966Z,4.07
2022-11-27T04:50:55.757Z,4.06
2022-11-27T04:56:19.238Z,4.06
2022-11-27T05:01:51.142Z,4.07
2022-11-27T05:07:18.593Z,4.06
2022-11-27T05:12:46.512Z,4.06
2022-11-27T05:18:18.989Z,4.06
2022-11-27T05:23:53.422Z,4.05
2022-11-27T05:29:19.666Z,4.04
2022-11-27T05:34:45.096Z,4.02
2022-11-27T05:40:20.565Z,4.03
2022-11-27T05:45:45.075Z,4.01
2022-11-27T05:51:18.471Z,4.02
2022-11-27T05:56:47.475Z,3.98
2022-11-27T06:02:29.647Z,4.00
2022-11-27T06:08:00.508Z,3.94
2022-11-27T06:13:23.674Z,3.92
2022-11-27T06:18:54.630Z,3.90
2022-11-27T06:24:23.237Z,3.91
2022-11-27T06:29:54.597Z,3.91
2022-11-27T06:35:19.053Z,3.89
2022-11-27T06:40:51.550Z,3.89
2022-11-27T06:46:23.519Z,3.88
2022-11-27T06:51:49.241Z,3.88
2022-11-27T06:57:18.140Z,3.91
2022-11-27T07:02:42.747Z,3.92
2022-11-27T07:08:16.979Z,3.98
2022-11-27T07:13:47.021Z,4.05
2022-11-27T07:19:12.917Z,4.11
2022-11-27T07:24:42.865Z,4.18
2022-11-27T07:30:17.543Z,4.23
2022-11-27T07:35:42.662Z,4.28
2022-11-27T07:41:17.316Z,4.35
2022-11-27T07:46:48.794Z,4.42
2022-11-27T07:52:17.858Z,4.49
2022-11-27T07:57:48.146Z,4.57
2022-11-27T08:03:15.386Z,4.67
2022-11-27T08:15:05.374Z,4.91
2022-11-27T08:21:05.639Z,5.09
2022-11-27T08:26:30.121Z,5.21
2022-11-27T08:31:59.121Z,5.35
2022-11-27T08:37:34.348Z,5.47
2022-11-27T08:43:04.856Z,5.60
2022-11-27T08:48:41.753Z,5.68
2022-11-27T08:54:22.844Z,5.77
2022-11-27T08:59:49.345Z,5.86
2022-11-27T09:05:18.262Z,5.98
2022-11-27T09:10:54.805Z,6.04
2022-11-27T09:16:24.904Z,6.21
2022-11-27T09:21:50.477Z,6.34
2022-11-27T09:27:27.318Z,6.43
2022-11-27T09:33:03.361Z,6.56
2022-11-27T09:38:29.099Z,6.74
2022-11-27T09:44:22.132Z,6.85
2022-11-27T09:49:53.872Z,6.94
2022-11-27T09:55:25.389Z,7.10
2022-11-27T10:01:01.747Z,7.25
2022-11-27T10:06:36.667Z,7.50
2022-11-27T10:12:23.478Z,7.61
2022-11-27T10:18:10.340Z,7.66
2022-11-27T10:24:10.169Z,7.74
2022-11-27T10:29:48.931Z,7.81
2022-11-27T10:35:20.187Z,7.97
2022-11-27T10:41:00.921Z,8.05
2022-11-27T10:46:35.456Z,8.18
2022-11-27T10:52:07.493Z,8.25
2022-11-27T10:57:48.479Z,8.36
2022-11-27T11:03:22.502Z,8.43
2022-11-27T11:09:13.372Z,8.51
2022-11-27T11:14:46.972Z,8.57
2022-11-27T11:20:26.526Z,8.55
2022-11-27T11:25:58.386Z,8.70
2022-11-27T11:31:27.503Z,8.85
2022-11-27T11:36:59.489Z,9.02
2022-11-27T11:42:53.625Z,9.18
2022-11-27T11:48:30.012Z,9.26
2022-11-27T11:54:07.324Z,9.40
2022-11-27T11:59:45.743Z,9.47
2022-11-27T12:05:53.187Z,9.54
2022-11-27T12:11:18.987Z,9.58
2022-11-27T12:17:00.163Z,9.66
2022-11-27T12:22:38.537Z,9.75
2022-11-27T12:28:15.463Z,9.75
2022-11-27T12:34:10.635Z,9.67
2022-11-27T12:39:39.037Z,9.59
2022-11-27T12:45:12.590Z,9.51
2022-11-27T12:50:51.143Z,9.47
2022-11-27T12:56:27.086Z,9.44
2022-11-27T13:01:59.354Z,9.41
2022-11-27T13:07:43.205Z,9.40
2022-11-27T13:13:11.797Z,9.40
2022-11-27T13:18:46.207Z,9.42
2022-11-27T13:24:16.988Z,9.44
2022-11-27T13:29:49.944Z,9.42
2022-11-27T13:35:30.012Z,9.40
2022-11-27T13:47:05.663Z,9.43
2022-11-27T13:52:30.313Z,9.46
2022-11-27T13:57:59.632Z,9.49
2022-11-27T14:03:29.462Z,9.52
2022-11-27T14:09:05.654Z,9.53
2022-11-27T14:14:33.081Z,9.52
2022-11-27T14:20:13.881Z,9.52
2022-11-27T14:25:38.611Z,9.54
2022-11-27T14:31:17.257Z,9.52
2022-11-27T14:36:41.132Z,9.45
2022-11-27T14:42:09.045Z,9.40
2022-11-27T14:47:36.570Z,9.33
2022-11-27T14:53:06.333Z,9.26
2022-11-27T14:58:40.044Z,9.18
2022-11-27T15:04:09.654Z,9.11
2022-11-27T15:09:39.061Z,9.07
2022-11-27T15:15:19.345Z,9.04
2022-11-27T15:20:50.034Z,9.00
2022-11-27T15:26:22.501Z,9.00
2022-11-27T15:32:00.014Z,8.97
2022-11-27T15:37:28.993Z,8.95
2022-11-27T15:42:53.927Z,8.94
2022-11-27T15:48:21.200Z,8.94
2022-11-27T15:53:54.593Z,8.90
2022-11-27T15:59:20.992Z,8.86
2022-11-27T16:04:45.409Z,8.85
2022-11-27T16:10:33.498Z,8.88
2022-11-27T16:15:59.408Z,8.85
2022-11-27T16:21:29.714Z,8.86
2022-11-27T16:26:59.200Z,8.83
2022-11-27T16:32:26.248Z,8.81
2022-11-27T16:37:52.947Z,8.83
2022-11-27T16:43:23.528Z,8.82
2022-11-27T16:48:56.090Z,8.79
2022-11-27T16:54:19.240Z,8.79
2022-11-27T16:59:45.407Z,8.73
2022-11-27T17:05:27.678Z,8.69
2022-11-27T17:10:56.134Z,8.60
2022-11-27T17:16:35.577Z,8.56
2022-11-27T17:21:59.176Z,8.47
2022-11-27T17:27:29.477Z,8.39
2022-11-27T17:33:00.352Z,8.34
2022-11-27T17:38:36.817Z,8.29
2022-11-27T17:44:04.530Z,8.21
2022-11-27T17:49:29.586Z,8.19
2022-11-27T17:54:59.153Z,8.14
2022-11-27T18:00:37.366Z,8.08
2022-11-27T18:06:09.266Z,7.98
2022-11-27T18:11:38.889Z,7.90
2022-11-27T18:17:17.607Z,7.78
2022-11-27T18:22:48.856Z,7.66
2022-11-27T18:28:15.767Z,7.61
2022-11-27T18:33:51.838Z,7.56
2022-11-27T18:39:26.622Z,7.54
2022-11-27T18:45:02.047Z,7.51
2022-11-27T18:50:29.590Z,7.46
2022-11-27T18:55:57.120Z,7.43
2022-11-27T19:01:23.658Z,7.37
2022-11-27T19:07:03.435Z,7.32
2022-11-27T19:12:33.141Z,7.20
2022-11-27T19:18:03.166Z,7.14
2022-11-27T19:23:39.028Z,7.06
2022-11-27T19:29:09.052Z,7.02
2022-11-27T19:34:40.343Z,6.99
2022-11-27T19:40:09.287Z,6.91
2022-11-27T19:45:53.572Z,6.84
2022-11-27T19:51:21.265Z,6.82
2022-11-27T19:56:46.259Z,6.77
2022-11-27T20:02:16.501Z,6.81
2022-11-27T20:07:40.896Z,6.83
2022-11-27T20:13:04.828Z,6.89
2022-11-27T20:18:38.263Z,6.91
2022-11-27T20:24:08.778Z,6.86
2022-11-27T20:29:32.442Z,6.86
2022-11-27T20:34:58.958Z,6.83
2022-11-27T20:46:15.411Z,6.80
2022-11-27T20:51:42.969Z,6.81
2022-11-27T20:57:07.678Z,6.80
2022-11-27T21:02:34.019Z,6.83
2022-11-27T21:08:01.397Z,6.84
2022-11-27T21:13:36.154Z,6.85
2022-11-27T21:19:05.820Z,6.76
2022-11-27T21:24:34.710Z,6.68
2022-11-27T21:30:00.712Z,6.65
2022-11-27T21:35:31.686Z,6.55
2022-11-27T21:40:57.752Z,6.52
2022-11-27T21:46:25.324Z,6.51
2022-11-27T21:51:52.858Z,6.49
2022-11-27T21:57:24.304Z,6.53
2022-11-27T22:02:49.294Z,6.55
2022-11-27T22:08:15.681Z,6.55
2022-11-27T22:13:57.702Z,6.56
2022-11-27T22:19:29.682Z,6.57
2022-11-27T22:24:59.999Z,6.63
2022-11-27T22:30:27.224Z,6.60
2022-11-27T22:35:52.115Z,6.63
2022-11-27T22:41:16.904Z,6.67
2022-11-27T22:46:45.818Z,6.66
2022-11-27T22:52:11.359Z,6.57
2022-11-27T22:57:39.727Z,6.43
2022-11-27T23:03:06.555Z,6.33
2022-11-27T23:08:35.296Z,6.24
2022-11-27T23:14:06.536Z,6.22
2022-11-27T23:19:41.849Z,6.15
2022-11-27T23:25:05.843Z,6.12
2022-11-27T23:30:44.935Z,6.06
2022-11-27T23:36:14.952Z,6.05
2022-11-27T23:41:44.877Z,6.03
2022-11-27T23:47:13.047Z,5.98
2022-11-27T23:52:44.943Z,5.91
2022-11-27T23:58:24.621Z,5.89
